sensor_id;sensor_type;location;lat;lon;timestamp;pressure;altitude;pressure_sealevel;temperature;humidity
57068;BME280;43391;47.448;18.904;2023-09-19T00:00:00;99211.91;;;21.62;83.61
57068;BME280;43391;47.448;18.904;2023-09-19T00:02:26;99207.59;;;21.61;83.67
57068;BME280;43391;47.448;18.904;2023-09-19T00:04:51;99204.97;;;21.61;83.80
57068;BME280;43391;47.448;18.904;2023-09-19T00:07:17;99208.25;;;21.55;84.00
57068;BME280;43391;47.448;18.904;2023-09-19T00:09:42;99207.91;;;21.50;84.62
57068;BME280;43391;47.448;18.904;2023-09-19T00:12:09;99210.84;;;21.47;84.77
57068;BME280;43391;47.448;18.904;2023-09-19T00:14:35;99206.03;;;21.42;85.27
57068;BME280;43391;47.448;18.904;2023-09-19T00:17:01;99203.56;;;21.41;85.37
57068;BME280;43391;47.448;18.904;2023-09-19T00:19:33;99208.97;;;21.39;85.53
57068;BME280;43391;47.448;18.904;2023-09-19T00:21:59;99211.78;;;21.37;85.75
57068;BME280;43391;47.448;18.904;2023-09-19T00:24:24;99199.72;;;21.35;85.96
57068;BME280;43391;47.448;18.904;2023-09-19T00:26:49;99207.47;;;21.28;86.77
57068;BME280;43391;47.448;18.904;2023-09-19T00:29:15;99209.56;;;21.24;86.65
57068;BME280;43391;47.448;18.904;2023-09-19T00:31:44;99196.38;;;21.24;87.09
57068;BME280;43391;47.448;18.904;2023-09-19T00:34:10;99200.84;;;21.24;87.22
57068;BME280;43391;47.448;18.904;2023-09-19T00:36:39;99197.22;;;21.25;87.34
57068;BME280;43391;47.448;18.904;2023-09-19T00:39:05;99193.44;;;21.28;87.05
57068;BME280;43391;47.448;18.904;2023-09-19T00:41:34;99196.91;;;21.28;87.30
57068;BME280;43391;47.448;18.904;2023-09-19T00:44:03;99194.09;;;21.30;87.23
57068;BME280;43391;47.448;18.904;2023-09-19T00:46:30;99197.41;;;21.32;87.20
57068;BME280;43391;47.448;18.904;2023-09-19T00:48:56;99197.41;;;21.32;87.07
57068;BME280;43391;47.448;18.904;2023-09-19T00:51:22;99196.56;;;21.31;87.17
57068;BME280;43391;47.448;18.904;2023-09-19T00:53:48;99196.72;;;21.30;87.02
57068;BME280;43391;47.448;18.904;2023-09-19T00:56:14;99199.22;;;21.31;87.35
57068;BME280;43391;47.448;18.904;2023-09-19T00:58:43;99194.94;;;21.30;87.31
57068;BME280;43391;47.448;18.904;2023-09-19T01:01:09;99194.94;;;21.30;87.56
57068;BME280;43391;47.448;18.904;2023-09-19T01:03:37;99196.22;;;21.26;87.53
57068;BME280;43391;47.448;18.904;2023-09-19T01:06:02;99198.84;;;21.26;87.91
57068;BME280;43391;47.448;18.904;2023-09-19T01:08:28;99194.72;;;21.23;87.94
57068;BME280;43391;47.448;18.904;2023-09-19T01:11:14;99189.78;;;21.20;88.04
57068;BME280;43391;47.448;18.904;2023-09-19T01:14:01;99191.56;;;21.20;88.30
57068;BME280;43391;47.448;18.904;2023-09-19T01:16:35;99197.34;;;21.23;88.51
57068;BME280;43391;47.448;18.904;2023-09-19T01:21:55;99187.78;;;21.22;88.39
57068;BME280;43391;47.448;18.904;2023-09-19T01:27:23;99192.59;;;21.27;88.51
57068;BME280;43391;47.448;18.904;2023-09-19T01:29:50;99175.25;;;21.24;88.60
57068;BME280;43391;47.448;18.904;2023-09-19T01:32:18;99182.03;;;21.27;88.76
57068;BME280;43391;47.448;18.904;2023-09-19T01:34:49;99173.59;;;21.23;88.75
57068;BME280;43391;47.448;18.904;2023-09-19T01:37:19;99169.53;;;21.29;88.65
57068;BME280;43391;47.448;18.904;2023-09-19T01:39:52;99174.94;;;21.28;88.97
57068;BME280;43391;47.448;18.904;2023-09-19T01:42:35;99178.38;;;21.20;89.05
57068;BME280;43391;47.448;18.904;2023-09-19T01:45:12;99180.19;;;21.19;89.22
57068;BME280;43391;47.448;18.904;2023-09-19T01:47:51;99180.19;;;21.19;89.63
57068;BME280;43391;47.448;18.904;2023-09-19T01:50:34;99180.50;;;21.16;89.84
57068;BME280;43391;47.448;18.904;2023-09-19T01:53:12;99180.81;;;21.13;89.85
57068;BME280;43391;47.448;18.904;2023-09-19T01:55:43;99180.31;;;21.09;90.41
57068;BME280;43391;47.448;18.904;2023-09-19T01:58:20;99179.44;;;21.01;90.62
57068;BME280;43391;47.448;18.904;2023-09-19T02:00:48;99178.59;;;21.00;90.79
57068;BME280;43391;47.448;18.904;2023-09-19T02:03:16;99180.06;;;20.94;91.06
57068;BME280;43391;47.448;18.904;2023-09-19T02:05:48;99174.78;;;20.94;91.33
57068;BME280;43391;47.448;18.904;2023-09-19T02:08:17;99178.56;;;20.92;91.40
57068;BME280;43391;47.448;18.904;2023-09-19T02:10:43;99173.44;;;20.90;91.65
57068;BME280;43391;47.448;18.904;2023-09-19T02:13:17;99176.22;;;20.89;91.76
57068;BME280;43391;47.448;18.904;2023-09-19T02:15:44;99179.50;;;20.91;91.88
57068;BME280;43391;47.448;18.904;2023-09-19T02:18:10;99173.72;;;20.87;92.09
57068;BME280;43391;47.448;18.904;2023-09-19T02:20:37;99170.84;;;20.80;92.18
57068;BME280;43391;47.448;18.904;2023-09-19T02:23:03;99173.81;;;20.77;92.45
57068;BME280;43391;47.448;18.904;2023-09-19T02:25:28;99161.75;;;20.75;92.54
57068;BME280;43391;47.448;18.904;2023-09-19T02:27:54;99180.84;;;20.68;92.98
57068;BME280;43391;47.448;18.904;2023-09-19T02:30:19;99169.09;;;20.63;93.30
57068;BME280;43391;47.448;18.904;2023-09-19T02:32:51;99170.69;;;20.55;93.84
57068;BME280;43391;47.448;18.904;2023-09-19T02:35:16;99177.75;;;20.55;93.85
57068;BME280;43391;47.448;18.904;2023-09-19T02:37:45;99171.50;;;20.56;93.86
57068;BME280;43391;47.448;18.904;2023-09-19T02:40:10;99175.72;;;20.49;94.23
57068;BME280;43391;47.448;18.904;2023-09-19T02:42:52;99176.88;;;20.46;94.56
57068;BME280;43391;47.448;18.904;2023-09-19T02:45:18;99175.50;;;20.42;94.82
57068;BME280;43391;47.448;18.904;2023-09-19T02:47:45;99180.25;;;20.38;94.99
57068;BME280;43391;47.448;18.904;2023-09-19T02:50:11;99180.88;;;20.32;95.53
57068;BME280;43391;47.448;18.904;2023-09-19T02:52:38;99174.25;;;20.28;95.74
57068;BME280;43391;47.448;18.904;2023-09-19T02:55:06;99176.03;;;20.27;95.82
57068;BME280;43391;47.448;18.904;2023-09-19T02:57:32;99169.59;;;20.22;96.04
57068;BME280;43391;47.448;18.904;2023-09-19T02:59:58;99174.16;;;20.20;96.17
57068;BME280;43391;47.448;18.904;2023-09-19T03:02:24;99170.72;;;20.19;96.39
57068;BME280;43391;47.448;18.904;2023-09-19T03:04:49;99173.25;;;20.11;96.59
57068;BME280;43391;47.448;18.904;2023-09-19T03:07:16;99179.50;;;20.10;96.71
57068;BME280;43391;47.448;18.904;2023-09-19T03:09:42;99183.25;;;20.07;97.13
57068;BME280;43391;47.448;18.904;2023-09-19T03:12:08;99179.41;;;20.01;97.23
57068;BME280;43391;47.448;18.904;2023-09-19T03:14:33;99192.44;;;20.03;97.40
57068;BME280;43391;47.448;18.904;2023-09-19T03:17:00;99178.47;;;20.02;97.43
57068;BME280;43391;47.448;18.904;2023-09-19T03:19:26;99175.66;;;20.04;97.63
57068;BME280;43391;47.448;18.904;2023-09-19T03:21:52;99176.63;;;20.03;97.66
57068;BME280;43391;47.448;18.904;2023-09-19T03:24:18;99173.34;;;20.01;97.59
57068;BME280;43391;47.448;18.904;2023-09-19T03:26:44;99178.59;;;20.01;97.74
57068;BME280;43391;47.448;18.904;2023-09-19T03:29:10;99176.94;;;20.00;97.77
57068;BME280;43391;47.448;18.904;2023-09-19T03:31:36;99181.91;;;20.03;97.87
57068;BME280;43391;47.448;18.904;2023-09-19T03:34:04;99185.81;;;19.99;97.80
57068;BME280;43391;47.448;18.904;2023-09-19T03:36:30;99185.66;;;20.00;97.89
57068;BME280;43391;47.448;18.904;2023-09-19T03:38:55;99184.25;;;19.96;98.60
57068;BME280;43391;47.448;18.904;2023-09-19T03:41:21;99182.75;;;19.94;98.65
57068;BME280;43391;47.448;18.904;2023-09-19T03:43:46;99178.09;;;19.87;98.75
57068;BME280;43391;47.448;18.904;2023-09-19T03:46:12;99182.69;;;19.85;98.87
57068;BME280;43391;47.448;18.904;2023-09-19T03:48:40;99182.81;;;19.84;99.08
57068;BME280;43391;47.448;18.904;2023-09-19T03:51:05;99178.53;;;19.83;99.20
57068;BME280;43391;47.448;18.904;2023-09-19T03:53:31;99187.56;;;19.80;99.26
57068;BME280;43391;47.448;18.904;2023-09-19T03:55:56;99184.09;;;19.79;99.58
57068;BME280;43391;47.448;18.904;2023-09-19T03:58:22;99190.34;;;19.78;99.65
57068;BME280;43391;47.448;18.904;2023-09-19T04:00:48;99193.97;;;19.77;99.96
57068;BME280;43391;47.448;18.904;2023-09-19T04:03:15;99189.81;;;19.75;100.00
57068;BME280;43391;47.448;18.904;2023-09-19T04:05:46;99190.19;;;19.80;100.00
57068;BME280;43391;47.448;18.904;2023-09-19T04:08:12;99195.75;;;19.77;100.00
57068;BME280;43391;47.448;18.904;2023-09-19T04:10:38;99197.03;;;19.73;100.00
57068;BME280;43391;47.448;18.904;2023-09-19T04:13:03;99191.38;;;19.68;100.00
57068;BME280;43391;47.448;18.904;2023-09-19T04:15:29;99196.78;;;19.66;100.00
57068;BME280;43391;47.448;18.904;2023-09-19T04:17:54;99200.25;;;19.67;100.00
57068;BME280;43391;47.448;18.904;2023-09-19T04:20:20;99208.00;;;19.68;100.00
57068;BME280;43391;47.448;18.904;2023-09-19T04:22:47;99205.63;;;19.75;100.00
57068;BME280;43391;47.448;18.904;2023-09-19T04:25:12;99215.16;;;19.76;100.00
57068;BME280;43391;47.448;18.904;2023-09-19T04:27:38;99219.75;;;19.74;100.00
57068;BME280;43391;47.448;18.904;2023-09-19T04:30:05;99222.25;;;19.75;99.86
57068;BME280;43391;47.448;18.904;2023-09-19T04:32:36;99225.84;;;19.74;99.65
57068;BME280;43391;47.448;18.904;2023-09-19T04:35:07;99221.69;;;19.72;98.83
57068;BME280;43391;47.448;18.904;2023-09-19T04:37:38;99230.44;;;19.72;98.54
57068;BME280;43391;47.448;18.904;2023-09-19T04:40:07;99236.28;;;19.66;98.94
57068;BME280;43391;47.448;18.904;2023-09-19T04:42:37;99243.38;;;19.56;100.00
57068;BME280;43391;47.448;18.904;2023-09-19T04:45:03;99241.88;;;19.43;100.00
57068;BME280;43391;47.448;18.904;2023-09-19T04:47:30;99248.03;;;19.34;100.00
57068;BME280;43391;47.448;18.904;2023-09-19T04:49:55;99248.03;;;19.24;100.00
57068;BME280;43391;47.448;18.904;2023-09-19T04:52:22;99247.09;;;19.15;100.00
57068;BME280;43391;47.448;18.904;2023-09-19T04:54:47;99246.53;;;19.02;100.00
57068;BME280;43391;47.448;18.904;2023-09-19T04:57:13;99255.56;;;18.99;100.00
57068;BME280;43391;47.448;18.904;2023-09-19T04:59:39;99254.31;;;18.93;100.00
57068;BME280;43391;47.448;18.904;2023-09-19T05:02:06;99266.63;;;18.93;100.00
57068;BME280;43391;47.448;18.904;2023-09-19T05:04:33;99269.94;;;18.85;100.00
57068;BME280;43391;47.448;18.904;2023-09-19T05:06:58;99271.59;;;18.76;100.00
57068;BME280;43391;47.448;18.904;2023-09-19T05:09:26;99278.41;;;18.69;100.00
57068;BME280;43391;47.448;18.904;2023-09-19T05:11:51;99274.50;;;18.63;100.00
57068;BME280;43391;47.448;18.904;2023-09-19T05:14:18;99286.13;;;18.61;100.00
57068;BME280;43391;47.448;18.904;2023-09-19T05:16:44;99290.56;;;18.60;100.00
57068;BME280;43391;47.448;18.904;2023-09-19T05:19:09;99280.19;;;18.58;100.00
57068;BME280;43391;47.448;18.904;2023-09-19T05:21:36;99288.47;;;18.54;100.00
57068;BME280;43391;47.448;18.904;2023-09-19T05:24:06;99288.75;;;18.51;100.00
57068;BME280;43391;47.448;18.904;2023-09-19T05:26:32;99285.84;;;18.44;100.00
57068;BME280;43391;47.448;18.904;2023-09-19T05:28:58;99294.13;;;18.39;100.00
57068;BME280;43391;47.448;18.904;2023-09-19T05:31:23;99290.38;;;18.32;100.00
57068;BME280;43391;47.448;18.904;2023-09-19T05:33:49;99280.53;;;18.24;100.00
57068;BME280;43391;47.448;18.904;2023-09-19T05:36:15;99283.59;;;18.19;100.00
57068;BME280;43391;47.448;18.904;2023-09-19T05:38:42;99281.81;;;18.20;100.00
57068;BME280;43391;47.448;18.904;2023-09-19T05:41:09;99269.34;;;18.22;100.00
57068;BME280;43391;47.448;18.904;2023-09-19T05:43:39;99282.63;;;18.21;100.00
57068;BME280;43391;47.448;18.904;2023-09-19T05:46:06;99288.00;;;18.19;100.00
57068;BME280;43391;47.448;18.904;2023-09-19T05:48:33;99294.50;;;18.15;100.00
57068;BME280;43391;47.448;18.904;2023-09-19T05:50:59;99294.75;;;18.12;100.00
57068;BME280;43391;47.448;18.904;2023-09-19T05:53:26;99292.13;;;18.12;100.00
57068;BME280;43391;47.448;18.904;2023-09-19T05:55:52;99296.69;;;18.10;100.00
57068;BME280;43391;47.448;18.904;2023-09-19T05:58:19;99300.97;;;18.11;100.00
57068;BME280;43391;47.448;18.904;2023-09-19T06:00:45;99301.94;;;18.10;100.00
57068;BME280;43391;47.448;18.904;2023-09-19T06:03:12;99289.75;;;18.09;100.00
57068;BME280;43391;47.448;18.904;2023-09-19T06:05:39;99304.59;;;18.10;100.00
57068;BME280;43391;47.448;18.904;2023-09-19T06:08:07;99301.88;;;18.00;100.00
57068;BME280;43391;47.448;18.904;2023-09-19T06:10:33;99300.88;;;17.91;100.00
57068;BME280;43391;47.448;18.904;2023-09-19T06:13:00;99312.03;;;17.83;100.00
57068;BME280;43391;47.448;18.904;2023-09-19T06:15:29;99310.91;;;17.76;100.00
57068;BME280;43391;47.448;18.904;2023-09-19T06:17:58;99308.63;;;17.61;100.00
57068;BME280;43391;47.448;18.904;2023-09-19T06:20:25;99306.00;;;17.61;100.00
57068;BME280;43391;47.448;18.904;2023-09-19T06:22:52;99306.25;;;17.58;100.00
57068;BME280;43391;47.448;18.904;2023-09-19T06:25:18;99313.44;;;17.56;100.00
57068;BME280;43391;47.448;18.904;2023-09-19T06:27:52;99319.38;;;17.58;100.00
57068;BME280;43391;47.448;18.904;2023-09-19T06:30:19;99328.72;;;17.51;100.00
57068;BME280;43391;47.448;18.904;2023-09-19T06:32:45;99328.41;;;17.44;100.00
57068;BME280;43391;47.448;18.904;2023-09-19T06:35:12;99330.34;;;17.42;100.00
57068;BME280;43391;47.448;18.904;2023-09-19T06:37:38;99336.09;;;17.36;100.00
57068;BME280;43391;47.448;18.904;2023-09-19T06:42:34;99326.75;;;17.22;100.00
57068;BME280;43391;47.448;18.904;2023-09-19T06:45:03;99337.63;;;17.17;100.00
57068;BME280;43391;47.448;18.904;2023-09-19T06:47:29;99331.97;;;17.22;100.00
57068;BME280;43391;47.448;18.904;2023-09-19T06:49:55;99338.59;;;17.16;100.00
57068;BME280;43391;47.448;18.904;2023-09-19T06:52:20;99346.50;;;17.05;100.00
57068;BME280;43391;47.448;18.904;2023-09-19T06:54:46;99354.56;;;17.02;100.00
57068;BME280;43391;47.448;18.904;2023-09-19T06:57:12;99359.47;;;16.95;100.00
57068;BME280;43391;47.448;18.904;2023-09-19T06:59:39;99365.81;;;16.92;100.00
57068;BME280;43391;47.448;18.904;2023-09-19T07:02:05;99379.66;;;16.83;100.00
57068;BME280;43391;47.448;18.904;2023-09-19T07:04:31;99381.91;;;16.87;100.00
57068;BME280;43391;47.448;18.904;2023-09-19T07:06:57;99384.41;;;16.89;100.00
57068;BME280;43391;47.448;18.904;2023-09-19T07:09:23;99391.06;;;16.93;100.00
57068;BME280;43391;47.448;18.904;2023-09-19T07:11:49;99394.13;;;16.98;100.00
57068;BME280;43391;47.448;18.904;2023-09-19T07:14:16;99400.09;;;17.00;100.00
57068;BME280;43391;47.448;18.904;2023-09-19T07:16:41;99405.72;;;16.96;100.00
57068;BME280;43391;47.448;18.904;2023-09-19T07:19:09;99399.38;;;16.98;100.00
57068;BME280;43391;47.448;18.904;2023-09-19T07:21:35;99405.59;;;16.97;100.00
57068;BME280;43391;47.448;18.904;2023-09-19T07:24:04;99401.94;;;16.89;100.00
57068;BME280;43391;47.448;18.904;2023-09-19T07:26:30;99400.97;;;16.90;100.00
57068;BME280;43391;47.448;18.904;2023-09-19T07:28:56;99402.50;;;16.92;100.00
57068;BME280;43391;47.448;18.904;2023-09-19T07:31:22;99405.47;;;16.99;100.00
57068;BME280;43391;47.448;18.904;2023-09-19T07:33:48;99407.13;;;17.00;100.00
57068;BME280;43391;47.448;18.904;2023-09-19T07:36:14;99403.81;;;16.98;100.00
57068;BME280;43391;47.448;18.904;2023-09-19T07:38:40;99414.88;;;17.02;100.00
57068;BME280;43391;47.448;18.904;2023-09-19T07:41:07;99409.28;;;16.95;100.00
57068;BME280;43391;47.448;18.904;2023-09-19T07:43:35;99413.56;;;16.96;100.00
57068;BME280;43391;47.448;18.904;2023-09-19T07:46:05;99419.66;;;17.08;100.00
57068;BME280;43391;47.448;18.904;2023-09-19T07:48:32;99422.53;;;17.05;100.00
57068;BME280;43391;47.448;18.904;2023-09-19T07:51:05;99434.75;;;17.16;100.00
57068;BME280;43391;47.448;18.904;2023-09-19T07:53:31;99436.44;;;17.17;100.00
57068;BME280;43391;47.448;18.904;2023-09-19T07:56:03;99434.88;;;17.25;100.00
57068;BME280;43391;47.448;18.904;2023-09-19T07:58:29;99439.28;;;17.25;100.00
57068;BME280;43391;47.448;18.904;2023-09-19T08:00:54;99444.28;;;17.28;100.00
57068;BME280;43391;47.448;18.904;2023-09-19T08:03:20;99445.81;;;17.31;100.00
57068;BME280;43391;47.448;18.904;2023-09-19T08:05:45;99452.84;;;17.30;100.00
57068;BME280;43391;47.448;18.904;2023-09-19T08:08:11;99455.47;;;17.30;100.00
57068;BME280;43391;47.448;18.904;2023-09-19T08:10:38;99452.97;;;17.29;100.00
57068;BME280;43391;47.448;18.904;2023-09-19T08:13:07;99465.75;;;17.22;100.00
57068;BME280;43391;47.448;18.904;2023-09-19T08:15:42;99461.47;;;17.21;100.00
57068;BME280;43391;47.448;18.904;2023-09-19T08:18:09;99458.59;;;17.24;100.00
57068;BME280;43391;47.448;18.904;2023-09-19T08:20:37;99464.34;;;17.18;100.00
57068;BME280;43391;47.448;18.904;2023-09-19T08:23:03;99467.09;;;17.16;100.00
57068;BME280;43391;47.448;18.904;2023-09-19T08:25:28;99471.47;;;17.16;100.00
57068;BME280;43391;47.448;18.904;2023-09-19T08:27:55;99469.81;;;17.15;100.00
57068;BME280;43391;47.448;18.904;2023-09-19T08:30:25;99478.19;;;17.08;100.00
57068;BME280;43391;47.448;18.904;2023-09-19T08:32:59;99470.97;;;17.22;100.00
57068;BME280;43391;47.448;18.904;2023-09-19T08:35:25;99478.72;;;17.23;100.00
57068;BME280;43391;47.448;18.904;2023-09-19T08:37:51;99496.75;;;17.28;100.00
57068;BME280;43391;47.448;18.904;2023-09-19T08:40:17;99496.75;;;17.28;100.00
57068;BME280;43391;47.448;18.904;2023-09-19T08:42:53;99507.09;;;17.30;100.00
57068;BME280;43391;47.448;18.904;2023-09-19T08:45:20;99513.56;;;17.25;100.00
57068;BME280;43391;47.448;18.904;2023-09-19T08:47:59;99520.81;;;17.33;100.00
57068;BME280;43391;47.448;18.904;2023-09-19T08:50:27;99532.03;;;17.24;100.00
57068;BME280;43391;47.448;18.904;2023-09-19T08:52:56;99533.94;;;17.22;100.00
57068;BME280;43391;47.448;18.904;2023-09-19T08:55:28;99525.81;;;17.25;100.00
57068;BME280;43391;47.448;18.904;2023-09-19T08:58:03;99524.16;;;17.24;100.00
57068;BME280;43391;47.448;18.904;2023-09-19T09:00:30;99528.56;;;17.23;100.00
57068;BME280;43391;47.448;18.904;2023-09-19T09:02:57;99516.66;;;17.31;100.00
57068;BME280;43391;47.448;18.904;2023-09-19T09:05:24;99519.00;;;17.34;100.00
57068;BME280;43391;47.448;18.904;2023-09-19T09:07:50;99502.19;;;17.36;100.00
57068;BME280;43391;47.448;18.904;2023-09-19T09:10:21;99492.63;;;17.47;100.00
57068;BME280;43391;47.448;18.904;2023-09-19T09:12:58;99474.06;;;17.60;100.00
57068;BME280;43391;47.448;18.904;2023-09-19T09:15:24;99472.88;;;17.64;100.00
57068;BME280;43391;47.448;18.904;2023-09-19T09:17:50;99465.19;;;17.72;100.00
57068;BME280;43391;47.448;18.904;2023-09-19T09:20:18;99453.88;;;17.72;100.00
57068;BME280;43391;47.448;18.904;2023-09-19T09:22:56;99460.31;;;17.67;100.00
57068;BME280;43391;47.448;18.904;2023-09-19T09:25:50;99471.66;;;17.68;100.00
57068;BME280;43391;47.448;18.904;2023-09-19T09:28:27;99472.59;;;17.67;100.00
57068;BME280;43391;47.448;18.904;2023-09-19T09:30:54;99476.31;;;17.64;100.00
57068;BME280;43391;47.448;18.904;2023-09-19T09:33:20;99490.91;;;17.57;100.00
57068;BME280;43391;47.448;18.904;2023-09-19T09:35:49;99493.78;;;17.54;100.00
57068;BME280;43391;47.448;18.904;2023-09-19T09:38:20;99492.22;;;17.51;100.00
57068;BME280;43391;47.448;18.904;2023-09-19T09:40:50;99498.72;;;17.47;100.00
57068;BME280;43391;47.448;18.904;2023-09-19T09:43:34;99505.72;;;17.47;100.00
57068;BME280;43391;47.448;18.904;2023-09-19T09:46:14;99508.47;;;17.45;100.00
57068;BME280;43391;47.448;18.904;2023-09-19T09:48:47;99507.78;;;17.43;100.00
57068;BME280;43391;47.448;18.904;2023-09-19T09:51:33;99502.88;;;17.50;100.00
57068;BME280;43391;47.448;18.904;2023-09-19T09:56:58;99497.91;;;17.68;100.00
57068;BME280;43391;47.448;18.904;2023-09-19T09:59:53;99510.34;;;17.87;100.00
57068;BME280;43391;47.448;18.904;2023-09-19T10:02:35;99502.25;;;18.12;100.00
57068;BME280;43391;47.448;18.904;2023-09-19T10:05:16;99500.03;;;18.38;100.00
57068;BME280;43391;47.448;18.904;2023-09-19T10:07:46;99500.53;;;18.53;100.00
57068;BME280;43391;47.448;18.904;2023-09-19T10:10:38;99500.66;;;18.52;100.00
57068;BME280;43391;47.448;18.904;2023-09-19T10:13:07;99509.63;;;18.49;100.00
57068;BME280;43391;47.448;18.904;2023-09-19T10:15:33;99511.28;;;18.50;100.00
57068;BME280;43391;47.448;18.904;2023-09-19T10:18:04;99500.25;;;18.56;100.00
57068;BME280;43391;47.448;18.904;2023-09-19T10:20:30;99510.38;;;18.61;100.00
57068;BME280;43391;47.448;18.904;2023-09-19T10:22:56;99509.00;;;18.67;100.00
57068;BME280;43391;47.448;18.904;2023-09-19T10:25:27;99521.38;;;18.76;100.00
57068;BME280;43391;47.448;18.904;2023-09-19T10:27:57;99516.22;;;18.75;100.00
57068;BME280;43391;47.448;18.904;2023-09-19T10:30:28;99518.31;;;18.71;100.00
57068;BME280;43391;47.448;18.904;2023-09-19T10:33:03;99516.66;;;18.70;100.00
57068;BME280;43391;47.448;18.904;2023-09-19T10:35:29;99517.31;;;18.72;100.00
57068;BME280;43391;47.448;18.904;2023-09-19T10:37:59;99524.41;;;18.71;100.00
57068;BME280;43391;47.448;18.904;2023-09-19T10:40:27;99529.78;;;18.70;100.00
57068;BME280;43391;47.448;18.904;2023-09-19T10:43:01;99528.00;;;18.70;100.00
57068;BME280;43391;47.448;18.904;2023-09-19T10:45:30;99525.63;;;18.67;100.00
57068;BME280;43391;47.448;18.904;2023-09-19T10:47:57;99530.47;;;18.72;100.00
57068;BME280;43391;47.448;18.904;2023-09-19T10:50:23;99535.91;;;18.80;100.00
57068;BME280;43391;47.448;18.904;2023-09-19T10:52:53;99536.22;;;18.87;100.00
57068;BME280;43391;47.448;18.904;2023-09-19T10:55:30;99536.53;;;18.94;100.00
57068;BME280;43391;47.448;18.904;2023-09-19T10:57:56;99544.56;;;19.02;100.00
57068;BME280;43391;47.448;18.904;2023-09-19T11:00:57;99546.88;;;19.17;100.00
57068;BME280;43391;47.448;18.904;2023-09-19T11:03:36;99554.22;;;19.33;100.00
57068;BME280;43391;47.448;18.904;2023-09-19T11:09:07;99558.97;;;19.88;100.00
57068;BME280;43391;47.448;18.904;2023-09-19T11:14:28;99554.66;;;20.37;100.00
57068;BME280;43391;47.448;18.904;2023-09-19T11:23:18;99547.25;;;21.44;100.00
57068;BME280;43391;47.448;18.904;2023-09-19T11:25:44;99544.53;;;21.36;100.00
57068;BME280;43391;47.448;18.904;2023-09-19T11:30:46;99548.69;;;21.38;100.00
57068;BME280;43391;47.448;18.904;2023-09-19T11:33:22;99547.25;;;21.44;98.08
57068;BME280;43391;47.448;18.904;2023-09-19T11:46:16;99533.69;;;20.83;100.00
57068;BME280;43391;47.448;18.904;2023-09-19T11:48:43;99533.81;;;20.91;100.00
57068;BME280;43391;47.448;18.904;2023-09-19T11:51:15;99536.94;;;21.33;99.69
57068;BME280;43391;47.448;18.904;2023-09-19T11:53:49;99533.81;;;21.84;99.40
57068;BME280;43391;47.448;18.904;2023-09-19T11:56:22;99538.19;;;22.20;95.96
57068;BME280;43391;47.448;18.904;2023-09-19T11:58:50;99533.78;;;22.02;94.35
57068;BME280;43391;47.448;18.904;2023-09-19T12:01:29;99536.88;;;21.97;96.13
57068;BME280;43391;47.448;18.904;2023-09-19T12:03:57;99530.78;;;21.79;91.70
57068;BME280;43391;47.448;18.904;2023-09-19T12:06:24;99532.28;;;21.63;91.94
57068;BME280;43391;47.448;18.904;2023-09-19T12:08:50;99532.31;;;21.53;92.28
57068;BME280;43391;47.448;18.904;2023-09-19T12:11:19;99537.75;;;21.51;92.22
57068;BME280;43391;47.448;18.904;2023-09-19T12:13:47;99531.56;;;21.61;92.96
57068;BME280;43391;47.448;18.904;2023-09-19T12:18:40;99548.16;;;22.08;89.53
57068;BME280;43391;47.448;18.904;2023-09-19T12:21:08;99537.94;;;22.31;90.44
57068;BME280;43391;47.448;18.904;2023-09-19T12:23:37;99552.78;;;22.32;87.23
57068;BME280;43391;47.448;18.904;2023-09-19T12:26:06;99554.97;;;22.10;86.77
57068;BME280;43391;47.448;18.904;2023-09-19T12:28:41;99551.53;;;21.92;88.14
57068;BME280;43391;47.448;18.904;2023-09-19T12:31:07;99555.31;;;21.89;86.14
57068;BME280;43391;47.448;18.904;2023-09-19T12:33:34;99549.03;;;21.90;87.86
57068;BME280;43391;47.448;18.904;2023-09-19T12:36:19;99560.28;;;21.92;89.04
57068;BME280;43391;47.448;18.904;2023-09-19T12:38:48;99570.75;;;21.66;87.68
57068;BME280;43391;47.448;18.904;2023-09-19T12:41:14;99563.94;;;21.45;89.40
57068;BME280;43391;47.448;18.904;2023-09-19T12:43:39;99557.81;;;21.44;91.17
57068;BME280;43391;47.448;18.904;2023-09-19T12:46:07;99553.91;;;21.48;90.42
57068;BME280;43391;47.448;18.904;2023-09-19T12:48:32;99559.56;;;21.35;88.06
57068;BME280;43391;47.448;18.904;2023-09-19T12:51:12;99553.28;;;21.36;89.64
57068;BME280;43391;47.448;18.904;2023-09-19T12:53:43;99556.41;;;21.50;89.59
57068;BME280;43391;47.448;18.904;2023-09-19T12:56:10;99548.34;;;21.88;89.05
57068;BME280;43391;47.448;18.904;2023-09-19T12:58:50;99553.28;;;22.27;84.16
57068;BME280;43391;47.448;18.904;2023-09-19T13:01:16;99554.03;;;22.46;85.82
57068;BME280;43391;47.448;18.904;2023-09-19T13:03:42;99553.19;;;22.64;84.75
57068;BME280;43391;47.448;18.904;2023-09-19T13:06:07;99547.25;;;22.70;82.26
57068;BME280;43391;47.448;18.904;2023-09-19T13:08:37;99550.91;;;22.69;83.04
57068;BME280;43391;47.448;18.904;2023-09-19T13:13:45;99550.78;;;22.26;83.53
57068;BME280;43391;47.448;18.904;2023-09-19T13:16:14;99552.94;;;22.04;83.78
57068;BME280;43391;47.448;18.904;2023-09-19T13:18:48;99555.34;;;21.97;85.54
57068;BME280;43391;47.448;18.904;2023-09-19T13:21:16;99563.66;;;21.84;85.10
57068;BME280;43391;47.448;18.904;2023-09-19T13:26:45;99557.56;;;21.84;85.42
57068;BME280;43391;47.448;18.904;2023-09-19T13:29:11;99557.19;;;21.79;86.07
57068;BME280;43391;47.448;18.904;2023-09-19T13:31:36;99557.63;;;21.92;86.84
57068;BME280;43391;47.448;18.904;2023-09-19T13:34:06;99554.81;;;22.12;85.01
57068;BME280;43391;47.448;18.904;2023-09-19T13:36:32;99567.16;;;22.29;85.42